Time;durP1;ratioP1;P1;durP2;ratioP2;P2;SDS_P1;SDS_P2;PMS_P1;PMS_P2;Temp;Humidity;BMP_temperature;BMP_pressure;BME280_temperature;BME280_humidity;BME280_pressure;Samples;Min_cycle;Max_cycle;Signal;HPM_P1;HPM_P2
2023/06/18 00:01:56;;;;;;;0.40;0.40;;;;;;;16.78;91.05;100224.78;4974069;28;20211;-74
2023/06/18 00:04:21;;;;;;;0.10;0.10;;;;;;;16.33;93.79;100237.06;4973843;28;20539;-74
2023/06/18 00:06:46;;;;;;;0.10;0.10;;;;;;;15.86;96.79;100237.00;4973846;28;20580;-74
2023/06/18 00:09:12;;;;;;;0.00;0.00;;;;;;;15.59;100.00;100244.91;4973703;28;20249;-74
2023/06/18 00:11:37;;;;;;;0.07;0.07;;;;;;;15.38;100.00;100244.28;4973703;28;20714;-74
2023/06/18 00:14:02;;;;;;;0.00;0.00;;;;;;;15.59;100.00;100244.09;4973308;28;20741;-74
2023/06/18 00:16:28;;;;;;;0.00;0.00;;;;;;;15.81;100.00;100248.28;4973755;28;20656;-74
2023/06/18 00:18:53;;;;;;;0.20;0.20;;;;;;;15.95;100.00;100243.97;4973309;28;20177;-74
2023/06/18 00:21:18;;;;;;;0.00;0.00;;;;;;;16.06;100.00;100250.56;4973712;28;20212;-74
2023/06/18 00:23:44;;;;;;;0.10;0.10;;;;;;;16.22;100.00;100245.09;4973612;28;20182;-74
2023/06/18 00:26:09;;;;;;;0.00;0.00;;;;;;;16.41;98.94;100244.38;4973537;28;20181;-74
2023/06/18 00:28:34;;;;;;;0.00;0.00;;;;;;;16.26;97.89;100237.69;4973133;28;20197;-74
2023/06/18 00:31:01;;;;;;;1.03;0.93;;;;;;;15.28;100.00;100242.00;4973400;28;20708;-74
2023/06/18 00:33:26;;;;;;;0.00;0.00;;;;;;;15.05;100.00;100255.47;4973147;28;20208;-74
2023/06/18 00:35:59;;;;;;;0.00;0.00;;;;;;;15.41;100.00;100260.09;4973360;28;20189;-74
2023/06/18 00:38:26;;;;;;;0.67;0.67;;;;;;;14.82;100.00;100250.44;4973111;28;20644;-74
2023/06/18 00:40:52;;;;;;;0.63;0.63;;;;;;;15.12;100.00;100245.47;4972874;28;20213;-74
2023/06/18 00:43:18;;;;;;;1.23;1.17;;;;;;;15.28;100.00;100244.75;4973577;28;20207;-74
2023/06/18 00:45:45;;;;;;;0.00;0.00;;;;;;;15.21;100.00;100253.63;4973305;28;20185;-74
2023/06/18 00:48:12;;;;;;;1.33;1.20;;;;;;;15.29;100.00;100254.63;4972851;28;20186;-74
2023/06/18 00:50:40;;;;;;;4.90;2.50;;;;;;;15.20;100.00;100259.47;4973152;28;20205;-74
2023/06/18 00:53:07;;;;;;;1.60;1.53;;;;;;;15.02;100.00;100256.94;4973077;28;20212;-74
2023/06/18 00:55:37;;;;;;;3.97;1.23;;;;;;;14.89;100.00;100253.41;4973104;28;20194;-76
2023/06/18 00:58:03;;;;;;;1.90;1.80;;;;;;;14.77;100.00;100256.19;4972887;28;20559;-73
2023/06/18 01:00:34;;;;;;;0.70;0.70;;;;;;;14.71;100.00;100252.03;4972926;28;20285;-73
2023/06/18 01:03:02;;;;;;;0.10;0.10;;;;;;;14.74;100.00;100254.09;4973136;28;20635;-74
2023/06/18 01:05:31;;;;;;;2.20;2.10;;;;;;;14.65;100.00;100250.66;4972990;28;20639;-73
2023/06/18 01:07:59;;;;;;;1.30;1.30;;;;;;;14.59;100.00;100249.28;4971538;28;20190;-74
2023/06/18 01:10:29;;;;;;;1.70;1.60;;;;;;;14.58;100.00;100251.22;4972802;28;20212;-73
2023/06/18 01:12:58;;;;;;;0.27;0.27;;;;;;;14.57;100.00;100249.63;4972932;28;20560;-74
2023/06/18 01:15:26;;;;;;;0.77;0.77;;;;;;;14.50;100.00;100249.41;4972867;28;20204;-73
2023/06/18 01:17:56;;;;;;;2.87;2.63;;;;;;;14.46;100.00;100240.22;4972627;28;20190;-73
2023/06/18 01:20:25;;;;;;;1.30;1.30;;;;;;;14.42;100.00;100238.47;4972811;28;20276;-74
2023/06/18 01:22:57;;;;;;;2.43;0.70;;;;;;;14.30;100.00;100242.81;4972915;28;20256;-73
2023/06/18 01:25:25;;;;;;;0.00;0.00;;;;;;;14.36;100.00;100245.34;4972894;28;20232;-76
2023/06/18 01:27:53;;;;;;;0.00;0.00;;;;;;;14.44;100.00;100244.47;4972659;28;20193;-74
2023/06/18 01:30:19;;;;;;;0.00;0.00;;;;;;;14.55;100.00;100246.41;4972699;28;20699;-74
2023/06/18 01:32:44;;;;;;;0.00;0.00;;;;;;;14.72;100.00;100250.88;4972716;28;20245;-74
2023/06/18 01:35:16;;;;;;;0.40;0.40;;;;;;;14.67;100.00;100253.88;4973097;28;20190;-74
2023/06/18 01:38:03;;;;;;;0.43;0.43;;;;;;;14.56;100.00;100250.78;4972501;28;20194;-73
2023/06/18 01:41:01;;;;;;;0.00;0.00;;;;;;;14.53;100.00;100254.22;4985209;28;20213;-74
2023/06/18 01:43:30;;;;;;;0.00;0.00;;;;;;;14.72;100.00;100263.84;4972548;28;20182;-74
2023/06/18 01:46:04;;;;;;;0.00;0.00;;;;;;;14.73;100.00;100255.25;4972751;28;20182;-74
2023/06/18 01:48:35;;;;;;;0.93;0.93;;;;;;;14.72;100.00;100258.34;4972179;28;20647;-74
2023/06/18 01:51:03;;;;;;;0.00;0.00;;;;;;;14.82;100.00;100272.44;4972641;28;20619;-74
2023/06/18 01:53:31;;;;;;;0.00;0.00;;;;;;;14.88;100.00;100268.31;4975458;28;20206;-74
2023/06/18 01:55:59;;;;;;;0.50;0.50;;;;;;;15.05;100.00;100280.25;4976245;28;20553;-74
2023/06/18 01:58:25;;;;;;;0.40;0.40;;;;;;;14.97;100.00;100272.91;4975934;28;20188;-74
2023/06/18 02:00:52;;;;;;;1.67;1.63;;;;;;;14.83;100.00;100265.00;4976117;28;20596;-74
2023/06/18 02:03:19;;;;;;;0.00;0.00;;;;;;;14.78;100.00;100274.28;4976159;28;20670;-74
2023/06/18 02:05:44;;;;;;;0.00;0.00;;;;;;;14.75;100.00;100276.91;4976001;28;20277;-74
2023/06/18 02:08:10;;;;;;;0.00;0.00;;;;;;;14.90;100.00;100276.22;4975796;28;20261;-74
2023/06/18 02:10:35;;;;;;;4.17;1.00;;;;;;;14.87;100.00;100274.94;4975847;28;20206;-74
2023/06/18 02:13:00;;;;;;;0.00;0.00;;;;;;;14.82;100.00;100277.94;4975945;28;20198;-74
2023/06/18 02:15:26;;;;;;;0.50;0.50;;;;;;;14.75;100.00;100277.69;4975781;28;20567;-74
2023/06/18 02:17:51;;;;;;;0.00;0.00;;;;;;;14.67;100.00;100273.13;4975572;28;20237;-74
2023/06/18 02:20:17;;;;;;;1.27;1.17;;;;;;;14.57;100.00;100265.31;4975720;28;20204;-74
2023/06/18 02:22:42;;;;;;;1.27;1.27;;;;;;;14.47;100.00;100274.03;4975706;28;20261;-74
2023/06/18 02:25:08;;;;;;;1.10;1.10;;;;;;;14.38;100.00;100281.53;4975790;28;20571;-73
2023/06/18 02:27:33;;;;;;;1.70;1.60;;;;;;;14.27;100.00;100279.22;4975585;28;20216;-73
2023/06/18 02:30:01;;;;;;;2.07;1.97;;;;;;;14.06;100.00;100286.72;4975342;28;20194;-73
2023/06/18 02:32:28;;;;;;;1.83;1.53;;;;;;;14.00;100.00;100288.06;4975400;28;20178;-73
2023/06/18 02:34:57;;;;;;;1.00;1.00;;;;;;;14.04;100.00;100283.53;4975544;28;20216;-74
2023/06/18 02:37:22;;;;;;;1.80;1.70;;;;;;;13.92;100.00;100280.72;4975724;28;20232;-73
2023/06/18 02:39:47;;;;;;;0.83;0.77;;;;;;;13.85;100.00;100283.19;4975173;28;20705;-73
2023/06/18 02:42:13;;;;;;;0.10;0.10;;;;;;;13.83;100.00;100278.03;4975924;28;20604;-73
2023/06/18 02:44:41;;;;;;;0.00;0.00;;;;;;;13.96;100.00;100276.16;4975238;28;20270;-73
2023/06/18 02:47:07;;;;;;;0.00;0.00;;;;;;;14.02;100.00;100272.03;4975391;28;20265;-74
2023/06/18 02:49:33;;;;;;;0.00;0.00;;;;;;;14.18;100.00;100273.03;4975029;28;20189;-74
2023/06/18 02:51:59;;;;;;;0.00;0.00;;;;;;;14.26;100.00;100276.81;4975170;28;20583;-73
2023/06/18 02:54:24;;;;;;;0.33;0.33;;;;;;;14.32;100.00;100283.72;4975072;28;20206;-74
2023/06/18 02:56:50;;;;;;;0.00;0.00;;;;;;;14.40;100.00;100277.28;4975223;28;20181;-74
2023/06/18 02:59:15;;;;;;;0.00;0.00;;;;;;;14.51;100.00;100285.94;4974815;28;20240;-73
2023/06/18 03:01:40;;;;;;;0.00;0.00;;;;;;;14.59;100.00;100290.53;4974922;28;20216;-74
2023/06/18 03:04:06;;;;;;;0.00;0.00;;;;;;;14.52;100.00;100284.78;4974787;28;20564;-74
2023/06/18 03:06:32;;;;;;;0.00;0.00;;;;;;;14.57;100.00;100292.81;4975011;28;20188;-73
2023/06/18 03:08:57;;;;;;;0.00;0.00;;;;;;;14.59;100.00;100285.81;4974908;28;20245;-74
2023/06/18 03:11:22;;;;;;;0.00;0.00;;;;;;;14.70;100.00;100288.13;4974874;28;20606;-74
2023/06/18 03:13:50;;;;;;;0.00;0.00;;;;;;;14.73;100.00;100285.50;4974751;28;20567;-74
2023/06/18 03:16:15;;;;;;;0.00;0.00;;;;;;;14.74;100.00;100284.34;4974769;28;20189;-74
2023/06/18 03:18:41;;;;;;;0.47;0.47;;;;;;;14.67;100.00;100284.13;4974440;28;20655;-74
2023/06/18 03:21:06;;;;;;;2.10;1.97;;;;;;;14.54;100.00;100283.31;4974665;28;20757;-73
2023/06/18 03:23:31;;;;;;;1.87;1.77;;;;;;;14.40;100.00;100280.03;4974594;28;20651;-74
2023/06/18 03:25:57;;;;;;;0.30;0.30;;;;;;;14.23;100.00;100286.53;4974670;28;20673;-74
2023/06/18 03:28:22;;;;;;;1.37;1.27;;;;;;;14.06;100.00;100269.44;4974114;28;20313;-73
2023/06/18 03:30:48;;;;;;;1.97;1.87;;;;;;;13.86;100.00;100271.88;4974447;28;20300;-74
2023/06/18 03:33:13;;;;;;;0.00;0.00;;;;;;;13.88;100.00;100266.03;4974505;28;20337;-73
2023/06/18 03:35:39;;;;;;;0.90;0.60;;;;;;;13.96;100.00;100270.66;4974620;28;20217;-73
2023/06/18 03:38:04;;;;;;;0.00;0.00;;;;;;;14.09;100.00;100274.25;4974196;28;20185;-74
2023/06/18 03:40:30;;;;;;;0.00;0.00;;;;;;;14.21;100.00;100274.28;4974297;28;20209;-74
2023/06/18 03:42:55;;;;;;;0.00;0.00;;;;;;;14.36;100.00;100275.56;4974282;28;20541;-74
2023/06/18 03:45:21;;;;;;;0.00;0.00;;;;;;;14.47;100.00;100279.53;4974083;28;20189;-74
2023/06/18 03:47:47;;;;;;;0.00;0.00;;;;;;;14.52;100.00;100269.09;4973988;28;20186;-74
2023/06/18 03:50:13;;;;;;;0.00;0.00;;;;;;;14.48;100.00;100272.88;4974212;28;20403;-74
2023/06/18 03:52:38;;;;;;;0.00;0.00;;;;;;;14.35;100.00;100263.78;4974061;28;20182;-74
2023/06/18 03:55:04;;;;;;;0.00;0.00;;;;;;;14.47;100.00;100269.34;4974080;28;20683;-74
2023/06/18 03:57:30;;;;;;;0.00;0.00;;;;;;;14.62;100.00;100276.13;4973907;28;20193;-74
2023/06/18 03:59:56;;;;;;;0.00;0.00;;;;;;;14.81;100.00;100284.59;4973632;28;20272;-74
2023/06/18 04:02:21;;;;;;;0.00;0.00;;;;;;;14.71;100.00;100279.53;4973979;28;20644;-74
2023/06/18 04:04:46;;;;;;;0.00;0.00;;;;;;;14.28;100.00;100285.50;4973966;28;20656;-74
2023/06/18 04:07:12;;;;;;;0.00;0.00;;;;;;;14.59;100.00;100283.06;4974035;28;20185;-74
2023/06/18 04:09:37;;;;;;;0.00;0.00;;;;;;;14.71;100.00;100286.97;4972089;28;20190;-73
2023/06/18 04:12:03;;;;;;;0.00;0.00;;;;;;;14.55;100.00;100295.91;4973731;28;20308;-74
2023/06/18 04:14:29;;;;;;;0.00;0.00;;;;;;;14.49;100.00;100291.78;4972951;28;20212;-74
2023/06/18 04:16:54;;;;;;;0.00;0.00;;;;;;;14.63;100.00;100296.16;4973745;28;20185;-74
2023/06/18 04:19:20;;;;;;;0.33;0.33;;;;;;;14.14;100.00;100296.00;4973433;28;20189;-73
2023/06/18 04:21:45;;;;;;;0.00;0.00;;;;;;;14.35;100.00;100306.97;4973518;28;20213;-74
2023/06/18 04:24:11;;;;;;;0.00;0.00;;;;;;;14.58;100.00;100306.22;4973685;28;20186;-74
2023/06/18 04:26:36;;;;;;;1.30;0.80;;;;;;;14.83;100.00;100298.78;4973547;28;20284;-74
2023/06/18 04:29:02;;;;;;;1.37;1.37;;;;;;;15.01;100.00;100301.31;4973058;28;20295;-74
2023/06/18 04:31:27;;;;;;;0.00;0.00;;;;;;;14.72;100.00;100303.13;4973338;28;20695;-74
2023/06/18 04:33:53;;;;;;;0.00;0.00;;;;;;;14.49;100.00;100304.72;4973461;28;20217;-74
2023/06/18 04:36:18;;;;;;;0.00;0.00;;;;;;;14.69;100.00;100312.06;4973740;28;20718;-74
2023/06/18 04:38:43;;;;;;;0.27;0.27;;;;;;;14.72;100.00;100314.13;4973118;28;20190;-74
2023/06/18 04:41:09;;;;;;;0.30;0.30;;;;;;;14.77;100.00;100316.69;4973257;28;20210;-74
2023/06/18 04:43:34;;;;;;;0.00;0.00;;;;;;;15.02;100.00;100317.47;4973138;28;20555;-73
2023/06/18 04:46:00;;;;;;;0.50;0.50;;;;;;;15.28;100.00;100308.06;4973365;28;20240;-74
2023/06/18 04:48:26;;;;;;;0.53;0.53;;;;;;;15.38;100.00;100308.41;4972940;28;20190;-74
2023/06/18 04:50:53;;;;;;;0.00;0.00;;;;;;;15.43;100.00;100307.34;4973159;28;20209;-74
2023/06/18 04:53:18;;;;;;;0.37;0.37;;;;;;;15.47;100.00;100311.81;4973058;28;20201;-74
2023/06/18 04:55:44;;;;;;;0.00;0.00;;;;;;;15.69;100.00;100312.47;4973138;28;20678;-74
2023/06/18 04:58:10;;;;;;;0.00;0.00;;;;;;;15.69;100.00;100306.97;4972822;28;20193;-74
2023/06/18 05:00:35;;;;;;;0.00;0.00;;;;;;;15.80;100.00;100308.09;4973046;28;20205;-74
2023/06/18 05:03:01;;;;;;;0.10;0.10;;;;;;;15.90;100.00;100304.81;4973323;28;20248;-74
2023/06/18 05:05:27;;;;;;;0.50;0.50;;;;;;;16.03;100.00;100317.41;4973069;28;20189;-74
2023/06/18 05:07:53;;;;;;;0.00;0.00;;;;;;;16.20;100.00;100321.00;4973246;28;20268;-74
2023/06/18 05:10:18;;;;;;;0.00;0.00;;;;;;;16.37;100.00;100309.66;4972993;28;20232;-74
2023/06/18 05:12:44;;;;;;;0.20;0.20;;;;;;;16.21;100.00;100309.63;4972817;28;20655;-74
2023/06/18 05:15:09;;;;;;;0.00;0.00;;;;;;;16.23;100.00;100312.03;4973004;28;20248;-74
2023/06/18 05:17:35;;;;;;;0.00;0.00;;;;;;;16.27;100.00;100310.19;4972903;28;20606;-74
2023/06/18 05:20:01;;;;;;;0.00;0.00;;;;;;;16.40;100.00;100310.91;4972687;28;20187;-74
2023/06/18 05:22:27;;;;;;;0.50;0.50;;;;;;;16.56;100.00;100307.00;4972856;28;20186;-74
2023/06/18 05:24:52;;;;;;;0.00;0.00;;;;;;;16.67;100.00;100315.59;4972932;28;20178;-74
2023/06/18 05:27:17;;;;;;;0.00;0.00;;;;;;;16.83;100.00;100304.56;4975668;28;20185;-74
2023/06/18 05:29:43;;;;;;;0.43;0.43;;;;;;;16.95;100.00;100305.25;4975079;28;20208;-74
2023/06/18 05:32:09;;;;;;;0.50;0.50;;;;;;;16.94;100.00;100311.16;4976741;28;20185;-74
2023/06/18 05:34:35;;;;;;;0.20;0.20;;;;;;;16.93;100.00;100309.53;4976568;28;20205;-74
2023/06/18 05:37:00;;;;;;;0.00;0.00;;;;;;;17.06;99.26;100312.97;4975470;28;20196;-74
2023/06/18 05:39:26;;;;;;;0.00;0.00;;;;;;;17.25;99.48;100319.38;4976363;28;20244;-74
2023/06/18 05:41:51;;;;;;;0.00;0.00;;;;;;;17.41;99.77;100313.81;4976332;28;20546;-74
2023/06/18 05:44:17;;;;;;;0.00;0.00;;;;;;;17.40;100.00;100319.72;4976489;28;20190;-74
2023/06/18 05:46:42;;;;;;;0.00;0.00;;;;;;;17.55;100.00;100318.84;4976352;28;20678;-74
2023/06/18 05:49:09;;;;;;;0.03;0.03;;;;;;;17.59;99.42;100327.22;4974870;28;20284;-74
2023/06/18 05:51:35;;;;;;;0.00;0.00;;;;;;;17.70;99.27;100315.25;4974955;28;20209;-74
2023/06/18 05:54:00;;;;;;;0.00;0.00;;;;;;;17.71;100.00;100322.41;4976309;28;20260;-74
2023/06/18 05:56:26;;;;;;;0.00;0.00;;;;;;;17.79;100.00;100326.91;4976178;28;20236;-74
2023/06/18 05:58:51;;;;;;;0.00;0.00;;;;;;;17.86;100.00;100325.47;4976001;28;20202;-74
2023/06/18 06:01:17;;;;;;;0.20;0.20;;;;;;;17.97;99.95;100330.03;4976107;28;20213;-74
2023/06/18 06:03:42;;;;;;;1.07;0.80;;;;;;;18.00;99.79;100328.50;4976104;28;20192;-74
2023/06/18 06:06:07;;;;;;;0.50;0.50;;;;;;;17.96;100.00;100330.41;4976189;28;20730;-74
2023/06/18 06:08:33;;;;;;;0.10;0.10;;;;;;;17.84;100.00;100331.34;4975788;28;20189;-74
2023/06/18 06:10:58;;;;;;;0.50;0.50;;;;;;;17.94;100.00;100333.53;4975780;28;20625;-74
2023/06/18 06:13:24;;;;;;;0.00;0.00;;;;;;;18.09;100.00;100329.91;4975857;28;20264;-74
2023/06/18 06:15:49;;;;;;;0.00;0.00;;;;;;;18.20;100.00;100334.81;4975976;28;20194;-74
2023/06/18 06:18:14;;;;;;;0.57;0.57;;;;;;;18.44;100.00;100340.84;4975728;28;20182;-74
2023/06/18 06:20:40;;;;;;;0.00;0.00;;;;;;;18.46;98.98;100334.13;4975805;28;20205;-74
2023/06/18 06:23:05;;;;;;;0.00;0.00;;;;;;;18.48;98.46;100331.78;4975878;28;20677;-74
2023/06/18 06:25:30;;;;;;;0.00;0.00;;;;;;;18.47;95.70;100333.75;4975619;28;20190;-74
2023/06/18 06:27:57;;;;;;;0.00;0.00;;;;;;;18.65;93.35;100331.34;4975388;28;20193;-75
2023/06/18 06:30:22;;;;;;;0.97;0.97;;;;;;;18.85;92.43;100330.13;4975577;28;20217;-74
2023/06/18 06:32:48;;;;;;;0.67;0.67;;;;;;;18.91;91.28;100334.16;4975525;28;20194;-74
2023/06/18 06:35:13;;;;;;;0.07;0.07;;;;;;;18.98;89.73;100328.75;4975835;28;20200;-74
2023/06/18 06:37:38;;;;;;;0.30;0.30;;;;;;;19.09;88.78;100328.13;4974630;28;20190;-74
2023/06/18 06:40:05;;;;;;;0.00;0.00;;;;;;;19.13;86.73;100332.56;4975438;28;20759;-73
2023/06/18 06:42:30;;;;;;;1.53;1.43;;;;;;;19.15;84.20;100330.22;4975364;28;20182;-74
2023/06/18 06:44:56;;;;;;;1.63;1.60;;;;;;;19.35;83.54;100336.44;4983447;28;20194;-74
2023/06/18 06:47:21;;;;;;;0.10;0.10;;;;;;;19.41;82.82;100334.97;4975726;28;20277;-74
2023/06/18 06:49:46;;;;;;;0.07;0.07;;;;;;;19.37;82.08;100336.84;4975114;28;20273;-74
2023/06/18 06:52:12;;;;;;;0.20;0.20;;;;;;;19.45;81.35;100335.81;4975341;28;20182;-74
2023/06/18 06:54:37;;;;;;;0.00;0.00;;;;;;;19.65;81.42;100338.47;4975121;28;20197;-74
2023/06/18 06:57:03;;;;;;;1.27;0.93;;;;;;;19.72;78.71;100336.59;4975078;28;20655;-74
2023/06/18 06:59:28;;;;;;;0.00;0.00;;;;;;;19.71;78.72;100332.25;4974882;28;20268;-74
2023/06/18 07:01:54;;;;;;;0.17;0.17;;;;;;;19.72;78.54;100331.06;4975049;28;20233;-74
2023/06/18 07:04:19;;;;;;;0.20;0.20;;;;;;;19.90;79.47;100345.16;4975383;28;20174;-74
2023/06/18 07:06:44;;;;;;;0.50;0.50;;;;;;;20.02;79.20;100338.56;4975005;28;20559;-74
2023/06/18 07:09:10;;;;;;;0.20;0.20;;;;;;;20.08;78.54;100331.50;4974866;28;20185;-74
2023/06/18 07:11:36;;;;;;;0.53;0.40;;;;;;;20.15;78.66;100337.94;4974604;28;20202;-74
2023/06/18 07:14:02;;;;;;;1.80;1.33;;;;;;;20.24;78.60;100337.63;4974863;28;20212;-74
2023/06/18 07:16:28;;;;;;;0.00;0.00;;;;;;;20.33;78.04;100329.00;4974836;28;20548;-74
2023/06/18 07:18:53;;;;;;;1.17;1.17;;;;;;;20.49;77.17;100332.38;4974580;28;20193;-74
2023/06/18 07:21:18;;;;;;;0.23;0.23;;;;;;;20.68;76.74;100332.16;4974659;28;20667;-74
2023/06/18 07:23:44;;;;;;;1.57;1.47;;;;;;;20.73;75.58;100326.28;4974604;28;20220;-74
2023/06/18 07:26:10;;;;;;;0.00;0.00;;;;;;;20.86;76.00;100328.75;4974591;28;20212;-74
2023/06/18 07:28:35;;;;;;;0.00;0.00;;;;;;;20.95;75.59;100329.22;4974286;28;20729;-74
2023/06/18 07:31:01;;;;;;;1.17;1.17;;;;;;;21.07;75.50;100328.91;4974528;28;20628;-74
2023/06/18 07:33:26;;;;;;;0.00;0.00;;;;;;;21.04;74.54;100329.69;4974399;28;20218;-74
2023/06/18 07:35:51;;;;;;;0.10;0.10;;;;;;;21.20;74.42;100338.56;4974535;28;20177;-74
2023/06/18 07:38:17;;;;;;;0.10;0.10;;;;;;;21.31;73.69;100333.91;4974257;28;20193;-74
2023/06/18 07:40:42;;;;;;;0.00;0.00;;;;;;;21.35;73.21;100331.94;4974123;28;20212;-74
2023/06/18 07:43:09;;;;;;;0.73;0.73;;;;;;;21.34;72.72;100322.00;4974326;28;20263;-74
2023/06/18 07:45:34;;;;;;;0.83;0.63;;;;;;;21.64;71.32;100320.97;4974154;28;20190;-74
2023/06/18 07:48:00;;;;;;;1.17;1.17;;;;;;;21.58;70.77;100317.78;4973956;28;20649;-74
2023/06/18 07:50:26;;;;;;;0.00;0.00;;;;;;;21.68;71.09;100317.03;4973110;28;20222;-74
2023/06/18 07:52:51;;;;;;;0.00;0.00;;;;;;;21.83;70.82;100322.66;4974339;28;20540;-74
2023/06/18 07:55:16;;;;;;;0.93;0.93;;;;;;;22.01;69.63;100312.41;4973906;28;20198;-74
2023/06/18 07:57:42;;;;;;;0.07;0.07;;;;;;;22.13;70.61;100317.66;4973795;28;20200;-74
2023/06/18 08:00:08;;;;;;;1.33;1.33;;;;;;;22.21;69.04;100312.91;4972645;28;20219;-74
2023/06/18 08:02:33;;;;;;;1.13;1.13;;;;;;;22.23;68.77;100305.75;4972867;28;20272;-74
2023/06/18 08:04:58;;;;;;;4.17;3.77;;;;;;;22.20;68.83;100300.16;4973938;28;20269;-74
2023/06/18 08:07:24;;;;;;;1.17;1.17;;;;;;;21.90;69.10;100303.22;4973834;28;20602;-74
2023/06/18 08:09:49;;;;;;;0.00;0.00;;;;;;;22.03;68.92;100287.78;4973458;28;20181;-74
2023/06/18 08:12:15;;;;;;;0.00;0.00;;;;;;;22.23;70.15;100299.38;4973828;28;20261;-74
2023/06/18 08:14:40;;;;;;;0.00;0.00;;;;;;;22.24;68.98;100285.06;4973671;28;20241;-74
2023/06/18 08:17:05;;;;;;;1.23;1.23;;;;;;;22.30;67.48;100276.34;4973800;28;20242;-74
2023/06/18 08:19:31;;;;;;;1.70;1.60;;;;;;;22.55;68.62;100282.72;4973428;28;20182;-74
2023/06/18 08:21:56;;;;;;;1.40;1.37;;;;;;;22.67;67.80;100289.91;4973596;28;20675;-74
2023/06/18 08:24:21;;;;;;;0.30;0.30;;;;;;;22.46;67.51;100288.69;4973496;28;20191;-74
2023/06/18 08:26:47;;;;;;;1.80;1.70;;;;;;;22.72;69.26;100292.31;4973545;28;20191;-74
2023/06/18 08:29:12;;;;;;;2.43;2.33;;;;;;;22.77;68.35;100295.47;4971992;28;20610;-75
2023/06/18 08:31:41;;;;;;;0.33;0.33;;;;;;;22.87;69.21;100299.50;4973297;28;20236;-75
2023/06/18 08:34:07;;;;;;;0.00;0.00;;;;;;;22.73;67.42;100288.31;4973428;28;20714;-75
2023/06/18 08:36:32;;;;;;;1.03;0.97;;;;;;;22.84;66.87;100286.34;4986311;28;20199;-75
2023/06/18 08:38:57;;;;;;;0.83;0.77;;;;;;;22.84;66.62;100280.78;4981256;28;20232;-75
2023/06/18 08:41:23;;;;;;;1.20;1.20;;;;;;;23.09;68.67;100289.91;4973438;28;20667;-75
2023/06/18 08:43:49;;;;;;;0.30;0.10;;;;;;;23.18;66.90;100288.72;4973360;28;20205;-75
2023/06/18 08:46:15;;;;;;;0.40;0.40;;;;;;;23.26;66.42;100276.34;4973366;28;20193;-75
2023/06/18 08:48:56;;;;;;;0.53;0.53;;;;;;;23.23;65.40;100277.94;4972919;28;20190;-75
2023/06/18 08:51:23;;;;;;;0.00;0.00;;;;;;;23.30;65.16;100277.16;4973148;28;20283;-75
2023/06/18 08:54:04;;;;;;;0.20;0.20;;;;;;;23.23;64.88;100272.38;4973112;28;20264;-75
2023/06/18 08:56:30;;;;;;;0.07;0.07;;;;;;;23.31;64.42;100273.16;4973196;28;20643;-75
2023/06/18 08:58:57;;;;;;;0.00;0.00;;;;;;;23.44;64.83;100277.09;4972888;28;20953;-75
2023/06/18 09:01:24;;;;;;;0.53;0.53;;;;;;;23.42;63.11;100269.13;4972682;28;20267;-75
2023/06/18 09:03:51;;;;;;;1.13;1.03;;;;;;;23.66;63.51;100273.06;4973060;28;20205;-75
2023/06/18 09:06:17;;;;;;;0.00;0.00;;;;;;;23.69;62.41;100265.88;4973180;28;20568;-75
2023/06/18 09:08:43;;;;;;;0.00;0.00;;;;;;;23.72;61.07;100260.31;4972705;28;20201;-76
2023/06/18 09:11:08;;;;;;;0.20;0.20;;;;;;;23.81;60.73;100268.22;4972998;28;20690;-75
2023/06/18 09:13:40;;;;;;;2.73;1.03;;;;;;;23.69;61.87;100265.88;4972845;28;20209;-74
2023/06/18 09:16:06;;;;;;;0.70;0.70;;;;;;;23.73;60.33;100253.53;4971781;28;20558;-74
2023/06/18 09:18:31;;;;;;;0.80;0.53;;;;;;;23.54;59.74;100255.94;4972564;28;20189;-74
2023/06/18 09:20:56;;;;;;;2.70;2.50;;;;;;;23.60;59.75;100255.16;4972819;28;20201;-74
2023/06/18 09:23:22;;;;;;;0.83;0.77;;;;;;;23.67;59.52;100260.69;4972816;28;20185;-74
2023/06/18 09:25:55;;;;;;;0.60;0.60;;;;;;;23.95;59.66;100264.56;4972963;28;20194;-74
2023/06/18 09:28:21;;;;;;;0.20;0.20;;;;;;;23.77;58.27;100261.88;4972579;28;20226;-74
2023/06/18 09:30:52;;;;;;;0.00;0.00;;;;;;;23.85;58.26;100265.41;4972718;28;20237;-74
2023/06/18 09:33:27;;;;;;;2.00;1.40;;;;;;;23.87;57.63;100263.00;4972660;28;20241;-74
2023/06/18 09:35:58;;;;;;;2.27;1.33;;;;;;;24.09;59.21;100258.91;4972799;28;20645;-74
2023/06/18 09:38:34;;;;;;;1.17;1.07;;;;;;;24.31;58.18;100257.59;4972480;28;20190;-74
2023/06/18 09:41:00;;;;;;;1.60;1.50;;;;;;;24.51;58.71;100269.03;4972676;28;20201;-74
2023/06/18 09:43:34;;;;;;;0.00;0.00;;;;;;;24.60;56.88;100249.81;4973033;28;20185;-74
2023/06/18 09:45:59;;;;;;;0.00;0.00;;;;;;;24.56;56.62;100251.81;4981227;28;20192;-74
2023/06/18 09:48:25;;;;;;;0.40;0.40;;;;;;;24.18;57.01;100248.09;4972317;28;20186;-74
2023/06/18 09:50:51;;;;;;;4.40;4.10;;;;;;;24.04;57.62;100248.16;4972607;28;20197;-74
2023/06/18 09:53:18;;;;;;;0.77;0.77;;;;;;;24.19;58.38;100252.47;4971450;28;20274;-74
2023/06/18 09:55:43;;;;;;;1.03;1.03;;;;;;;24.27;57.27;100236.44;4972561;28;20193;-74
2023/06/18 09:58:08;;;;;;;0.07;0.07;;;;;;;24.42;56.83;100234.38;4982065;28;20186;-74
2023/06/18 10:00:34;;;;;;;0.07;0.07;;;;;;;24.54;56.14;100251.44;4987331;28;20221;-74
2023/06/18 10:03:07;;;;;;;0.73;0.73;;;;;;;24.67;56.30;100236.97;4972584;28;20186;-74
2023/06/18 10:05:35;;;;;;;0.10;0.10;;;;;;;24.60;55.12;100235.03;4972527;28;20671;-74
2023/06/18 10:08:07;;;;;;;0.00;0.00;;;;;;;24.52;55.68;100228.72;4972290;28;20665;-74
2023/06/18 10:10:35;;;;;;;0.80;0.70;;;;;;;24.84;55.68;100236.81;4972276;28;20209;-74
2023/06/18 10:13:06;;;;;;;0.70;0.70;;;;;;;24.76;54.73;100226.91;4973130;28;20185;-74
2023/06/18 10:15:33;;;;;;;0.37;0.37;;;;;;;24.39;54.80;100218.44;4975992;28;20225;-73
2023/06/18 10:18:00;;;;;;;2.47;1.47;;;;;;;24.61;54.68;100220.66;4975819;28;20190;-74
2023/06/18 10:20:27;;;;;;;0.00;0.00;;;;;;;24.65;53.91;100223.41;4975784;28;20901;-74
2023/06/18 10:22:59;;;;;;;0.00;0.00;;;;;;;24.93;53.45;100216.75;4975842;28;20178;-74
2023/06/18 10:25:25;;;;;;;0.83;0.80;;;;;;;25.10;54.55;100226.19;4975817;28;20592;-75
2023/06/18 10:27:52;;;;;;;1.07;0.97;;;;;;;25.19;53.00;100220.91;4975550;28;20196;-75
2023/06/18 10:30:18;;;;;;;2.50;2.30;;;;;;;24.95;53.00;100210.75;4975548;28;20222;-75
2023/06/18 10:32:44;;;;;;;0.00;0.00;;;;;;;25.04;52.54;100209.09;4975631;28;20197;-75
2023/06/18 10:35:12;;;;;;;0.27;0.27;;;;;;;25.16;53.09;100213.34;4975594;28;20201;-75
2023/06/18 10:37:40;;;;;;;2.73;2.57;;;;;;;25.23;52.85;100207.69;4975250;28;20185;-75
2023/06/18 10:40:06;;;;;;;0.43;0.43;;;;;;;24.96;52.39;100209.53;4975587;28;20236;-75
2023/06/18 10:42:33;;;;;;;0.60;0.47;;;;;;;25.22;52.79;100211.69;4975380;28;20186;-75
2023/06/18 10:45:09;;;;;;;0.13;0.13;;;;;;;25.00;52.43;100199.94;4975505;28;20185;-75
2023/06/18 10:47:35;;;;;;;0.13;0.13;;;;;;;25.18;51.26;100199.75;4975328;28;20564;-76
2023/06/18 10:50:03;;;;;;;0.00;0.00;;;;;;;25.36;51.14;100194.75;4975178;28;20193;-74
2023/06/18 10:52:39;;;;;;;0.97;0.97;;;;;;;25.77;53.19;100207.84;4975177;28;20552;-74
2023/06/18 10:55:26;;;;;;;1.40;1.40;;;;;;;25.64;50.92;100184.41;4975343;28;20209;-74
2023/06/18 10:58:03;;;;;;;0.10;0.10;;;;;;;25.85;51.83;100188.94;4975158;28;20193;-74
2023/06/18 11:00:36;;;;;;;0.67;0.67;;;;;;;26.02;50.87;100185.84;4975036;28;20202;-74
2023/06/18 11:03:13;;;;;;;2.87;2.30;;;;;;;25.69;50.07;100167.16;4975252;28;20184;-75
2023/06/18 11:05:46;;;;;;;0.00;0.00;;;;;;;25.71;49.98;100175.94;4973766;28;20197;-75
2023/06/18 11:08:13;;;;;;;1.33;1.27;;;;;;;25.39;49.40;100165.94;4974809;28;20607;-74
2023/06/18 11:10:40;;;;;;;0.47;0.47;;;;;;;25.42;49.88;100164.28;4974866;28;20206;-75
2023/06/18 11:13:07;;;;;;;0.57;0.57;;;;;;;25.91;50.81;100174.06;4975248;28;20190;-74
2023/06/18 11:15:34;;;;;;;0.20;0.20;;;;;;;26.06;48.12;100160.63;4974859;28;20189;-74
2023/06/18 11:18:03;;;;;;;1.97;1.87;;;;;;;26.02;47.36;100160.66;4974605;28;20702;-75
2023/06/18 11:20:34;;;;;;;2.13;2.03;;;;;;;25.63;48.26;100161.22;4974867;28;20233;-74